Time;durP1;ratioP1;P1;durP2;ratioP2;P2;SDS_P1;SDS_P2;PMS_P1;PMS_P2;Temp;Humidity;BMP_temperature;BMP_pressure;BME280_temperature;BME280_humidity;BME280_pressure;Samples;Min_cycle;Max_cycle;Signal;HPM_P1;HPM_P2
2021/04/01 00:00:10;;;;;;;9.73;7.17;;;;;;;1.41;90.79;93608.75;1733096;82;21197;-79
2021/04/01 00:02:37;;;;;;;9.20;7.37;;;;;;;1.48;90.88;93604.75;1738146;81;21167;-78
2021/04/01 00:05:07;;;;;;;9.10;7.12;;;;;;;1.51;90.44;93600.06;1758518;81;21073;-79
2021/04/01 00:07:35;;;;;;;12.78;8.03;;;;;;;1.52;90.38;93597.05;1762465;81;21078;-80
2021/04/01 00:10:10;;;;;;;8.95;6.72;;;;;;;1.48;90.11;93601.50;1746565;82;21687;-79
2021/04/01 00:12:38;;;;;;;12.03;7.72;;;;;;;1.46;90.40;93597.02;1742143;82;22171;-78
2021/04/01 00:15:08;;;;;;;9.50;6.90;;;;;;;1.48;90.23;93597.48;1741899;82;21134;-78
2021/04/01 00:17:37;;;;;;;9.13;6.85;;;;;;;1.45;90.17;93594.12;1741863;82;21151;-79
2021/04/01 00:20:06;;;;;;;11.03;8.00;;;;;;;1.38;90.03;93586.62;1741883;82;21051;-78
2021/04/01 00:22:36;;;;;;;10.78;8.23;;;;;;;1.34;90.53;93592.43;1742026;82;21161;-79
2021/04/01 00:25:04;;;;;;;11.10;7.62;;;;;;;1.36;91.10;93588.09;1745540;81;21403;-78
2021/04/01 00:27:32;;;;;;;12.78;8.23;;;;;;;1.42;91.18;93582.16;1820845;77;21155;-79
2021/04/01 00:30:00;;;;;;;12.75;8.35;;;;;;;1.48;90.69;93586.77;1783150;77;21116;-79
2021/04/01 00:32:27;;;;;;;9.08;6.85;;;;;;;1.49;90.39;93584.86;1743237;80;21144;-78
2021/04/01 00:34:54;;;;;;;10.18;7.83;;;;;;;1.50;90.37;93579.72;1794241;79;21032;-78
2021/04/01 00:37:22;;;;;;;12.03;8.08;;;;;;;1.46;90.23;93578.27;1787981;79;21372;-79
2021/04/01 00:39:50;;;;;;;10.82;8.40;;;;;;;1.45;90.19;93579.39;1750933;82;21167;-78
2021/04/01 00:42:18;;;;;;;9.38;7.30;;;;;;;1.46;90.23;93572.34;1761702;81;21052;-79
2021/04/01 00:44:45;;;;;;;10.20;7.35;;;;;;;1.49;90.13;93568.22;1759320;81;21569;-79
2021/04/01 00:47:12;;;;;;;12.00;8.15;;;;;;;1.47;90.10;93563.77;1771647;80;21065;-78
2021/04/01 00:49:39;;;;;;;10.10;7.20;;;;;;;1.44;90.40;93563.88;1784113;80;21790;-79
2021/04/01 00:52:07;;;;;;;10.38;7.40;;;;;;;1.45;90.40;93560.63;1782852;79;21195;-79
2021/04/01 00:54:37;;;;;;;11.35;7.95;;;;;;;1.42;90.24;93555.37;1727136;83;21494;-77
2021/04/01 00:57:05;;;;;;;9.75;6.87;;;;;;;1.38;90.11;93561.17;1754571;81;21578;-78
2021/04/01 00:59:32;;;;;;;12.30;8.10;;;;;;;1.35;90.39;93559.72;1774382;80;21502;-77
2021/04/01 01:02:02;;;;;;;9.35;7.62;;;;;;;1.35;90.70;93549.78;1788507;79;22660;-78
2021/04/01 01:04:29;;;;;;;12.73;8.73;;;;;;;1.39;90.76;93546.68;1793695;78;21499;-78
2021/04/01 01:07:01;;;;;;;11.55;7.53;;;;;;;1.42;90.50;93547.89;1782709;80;21115;-78
2021/04/01 01:09:28;;;;;;;10.38;7.00;;;;;;;1.43;90.31;93545.45;1758724;81;21088;-77
2021/04/01 01:11:56;;;;;;;10.48;8.13;;;;;;;1.37;89.96;93543.54;1733005;81;21625;-78
2021/04/01 01:14:24;;;;;;;9.45;7.35;;;;;;;1.32;90.39;93535.73;1725886;81;21080;-78
2021/04/01 01:16:53;;;;;;;11.25;8.45;;;;;;;1.27;90.49;93529.80;1725784;81;21163;-78
2021/04/01 01:19:20;;;;;;;10.85;9.23;;;;;;;1.23;90.93;93530.23;1724862;81;21115;-79
2021/04/01 01:21:48;;;;;;;13.70;8.95;;;;;;;1.24;91.30;93529.89;1747521;82;21141;-79
2021/04/01 01:24:16;;;;;;;13.78;8.93;;;;;;;1.30;91.33;93523.78;1803014;79;21048;-78
2021/04/01 01:26:45;;;;;;;10.10;7.55;;;;;;;1.34;91.20;93521.98;1817307;78;21208;-78
2021/04/01 01:29:13;;;;;;;11.85;8.85;;;;;;;1.37;90.95;93516.75;1818939;78;21499;-78
2021/04/01 01:31:46;;;;;;;12.35;8.40;;;;;;;1.36;90.74;93518.44;1807362;78;21053;-78
2021/04/01 01:34:10;;;;;;;11.95;8.85;;;;;;;1.37;90.84;93514.63;1785549;79;21143;-77
2021/04/01 01:36:39;;;;;;;11.18;7.45;;;;;;;1.38;90.80;93520.98;1739610;81;21529;-77
2021/04/01 01:39:08;;;;;;;9.80;8.38;;;;;;;1.40;90.88;93515.30;1786522;79;22411;-78
2021/04/01 01:41:36;;;;;;;11.45;8.50;;;;;;;1.39;90.68;93513.72;1802302;79;21157;-77
2021/04/01 01:44:04;;;;;;;11.75;7.83;;;;;;;1.36;90.72;93513.08;1802926;79;21047;-78
2021/04/01 01:46:31;;;;;;;10.30;8.23;;;;;;;1.38;90.81;93518.86;1798495;79;21493;-77
2021/04/01 01:48:59;;;;;;;10.75;8.50;;;;;;;1.36;90.43;93509.84;1805886;79;21141;-77
2021/04/01 01:51:28;;;;;;;11.45;7.83;;;;;;;1.34;90.42;93511.27;1798149;79;21412;-79
2021/04/01 01:53:56;;;;;;;12.93;7.97;;;;;;;1.35;90.29;93507.47;1803189;79;21185;-78
2021/04/01 01:56:26;;;;;;;11.10;8.35;;;;;;;1.36;90.25;93503.13;1807770;79;21029;-78
2021/04/01 01:58:55;;;;;;;8.40;7.12;;;;;;;1.35;90.07;93500.21;1794367;79;21066;-78
2021/04/01 02:01:24;;;;;;;10.43;8.00;;;;;;;1.30;89.73;93495.64;1747285;82;21086;-78
2021/04/01 02:03:52;;;;;;;9.85;8.05;;;;;;;1.19;89.82;93500.09;1741692;82;21333;-77
2021/04/01 02:06:21;;;;;;;16.85;10.08;;;;;;;1.19;90.33;93497.98;1741492;82;21157;-77
2021/04/01 02:08:51;;;;;;;13.80;8.68;;;;;;;1.18;90.81;93501.78;1741537;82;21095;-77
2021/04/01 02:11:20;;;;;;;12.40;8.70;;;;;;;1.21;91.69;93497.88;1787027;80;21100;-79
2021/04/01 02:13:48;;;;;;;11.48;8.55;;;;;;;1.22;91.59;93494.64;1749051;80;21075;-78
2021/04/01 02:16:15;;;;;;;9.90;8.10;;;;;;;1.20;91.49;93484.80;1779686;80;21430;-78
2021/04/01 02:18:43;;;;;;;9.73;8.20;;;;;;;1.20;91.44;93487.48;1748395;80;21071;-79
2021/04/01 02:21:10;;;;;;;10.88;8.75;;;;;;;1.20;91.68;93482.13;1741421;81;21216;-78
2021/04/01 02:23:38;;;;;;;13.80;8.73;;;;;;;1.25;91.60;93484.59;1756895;80;21128;-79
2021/04/01 02:26:06;;;;;;;10.93;7.95;;;;;;;1.24;91.31;93474.98;1778833;80;21133;-78
2021/04/01 02:28:35;;;;;;;12.70;8.70;;;;;;;1.23;91.17;93479.34;1788745;79;21321;-77
2021/04/01 02:31:07;;;;;;;12.05;8.80;;;;;;;1.20;91.33;93478.91;1820326;78;21039;-78
2021/04/01 02:33:38;;;;;;;12.58;8.88;;;;;;;1.25;91.55;93478.47;1833806;77;21154;-77
2021/04/01 02:36:07;;;;;;;9.15;7.75;;;;;;;1.31;91.49;93482.47;1832078;77;21119;-78
2021/04/01 02:38:34;;;;;;;11.08;7.72;;;;;;;1.32;91.17;93470.09;1826298;78;21036;-78
2021/04/01 02:41:02;;;;;;;8.28;6.90;;;;;;;1.28;91.03;93471.08;1823168;78;21483;-78
2021/04/01 02:43:32;;;;;;;;;;;;;;;;;;;;;
2021/04/01 02:46:03;;;;;;;12.30;8.53;;;;;;;1.16;91.57;93468.62;1821359;78;21048;-78
2021/04/01 02:48:31;;;;;;;12.75;9.73;;;;;;;1.15;91.94;93467.06;1828354;78;21171;-78
2021/04/01 02:50:59;;;;;;;12.63;9.88;;;;;;;1.17;92.21;93464.84;1824973;77;21100;-80
2021/04/01 02:53:26;;;;;;;10.88;8.58;;;;;;;1.25;92.37;93462.39;1795300;78;21554;-78
2021/04/01 02:55:56;;;;;;;12.05;8.75;;;;;;;1.27;92.47;93459.58;1747670;80;21083;-77
2021/04/01 02:58:24;;;;;;;13.65;9.35;;;;;;;1.26;92.16;93463.95;1788331;80;21050;-78
2021/04/01 03:00:53;;;;;;;13.43;9.70;;;;;;;1.20;92.00;93460.16;1788047;80;21484;-78
2021/04/01 03:05:48;;;;;;;9.13;7.05;;;;;;;1.25;92.58;93456.47;1801471;77;21367;-77
2021/04/01 03:08:15;;;;;;;12.00;9.35;;;;;;;1.28;92.11;93456.34;1740001;82;21100;-78
2021/04/01 03:10:43;;;;;;;12.07;8.60;;;;;;;1.23;91.86;93452.55;1767706;80;21056;-77
2021/04/01 03:13:11;;;;;;;10.48;8.13;;;;;;;1.25;91.98;93458.38;1754400;81;21060;-78
2021/04/01 03:15:40;;;;;;;11.15;8.95;;;;;;;1.21;91.59;93452.91;1728143;81;21131;-76
2021/04/01 03:18:07;;;;;;;12.13;9.20;;;;;;;1.20;91.76;93456.67;1741094;81;21416;-78
2021/04/01 03:20:36;;;;;;;10.82;8.73;;;;;;;1.23;91.83;93454.67;1748530;80;21610;-79
2021/04/01 03:23:04;;;;;;;13.13;9.55;;;;;;;1.29;91.76;93452.56;1739698;81;21053;-78
2021/04/01 03:25:32;;;;;;;12.95;8.83;;;;;;;1.34;91.69;93449.66;1739810;82;21049;-78
2021/04/01 03:28:01;;;;;;;9.43;7.47;;;;;;;1.38;91.55;93456.67;1739594;82;21120;-77
2021/04/01 03:30:29;;;;;;;10.40;7.80;;;;;;;1.39;91.37;93451.56;1738041;82;21116;-78
2021/04/01 03:32:58;;;;;;;8.68;7.78;;;;;;;1.35;91.09;93453.89;1737180;81;21135;-78
2021/04/01 03:35:25;;;;;;;15.38;9.48;;;;;;;1.27;91.12;93448.87;1737384;81;21065;-78
2021/04/01 03:37:56;;;;;;;10.00;7.60;;;;;;;1.22;91.44;93449.10;1737408;82;21045;-77
2021/04/01 03:40:24;;;;;;;10.85;9.15;;;;;;;1.25;91.69;93444.42;1755237;81;21063;-78
2021/04/01 03:42:52;;;;;;;15.45;9.53;;;;;;;1.25;91.55;93444.98;1767726;80;21468;-78
2021/04/01 03:45:20;;;;;;;12.50;9.48;;;;;;;1.26;91.74;93435.82;1787266;79;21151;-78
2021/04/01 03:47:49;;;;;;;14.18;10.98;;;;;;;1.30;91.92;93430.79;1770723;81;21591;-78
2021/04/01 03:50:16;;;;;;;13.03;9.28;;;;;;;1.35;92.00;93435.12;1771357;80;23693;-77
2021/04/01 03:52:43;;;;;;;14.13;9.43;;;;;;;1.38;92.28;93433.13;1771504;81;21057;-77
2021/04/01 03:55:56;;;;;;;15.80;10.48;;;;;;;1.36;91.85;93425.44;1771265;81;21383;-77
2021/04/01 03:57:42;;;;;;;12.43;8.48;;;;;;;1.36;91.76;93428.11;1754237;81;21124;-77
2021/04/01 04:00:24;;;;;;;13.88;9.03;;;;;;;1.37;91.72;93424.88;1771309;81;21555;-77
2021/04/01 04:03:37;;;;;;;12.95;10.30;;;;;;;1.36;91.73;93427.34;1771027;81;21571;-78
2021/04/01 04:05:39;;;;;;;;;;;;;;;1.33;91.96;93423.42;1763844;81;21235;-77
2021/04/01 04:10:46;;;;;;;13.32;9.85;;;;;;;1.34;92.30;93420.95;1809833;78;21474;-78
2021/04/01 04:15:40;;;;;;;14.70;10.18;;;;;;;1.31;92.55;93416.83;1818129;78;21550;-78
2021/04/01 04:18:08;;;;;;;14.93;10.70;;;;;;;1.30;92.81;93421.41;1798519;79;21547;-79
2021/04/01 04:20:36;;;;;;;16.77;10.20;;;;;;;1.33;93.12;93421.30;1772786;79;21512;-78
2021/04/01 04:23:04;;;;;;;16.90;10.78;;;;;;;1.35;93.26;93421.73;1769577;81;21073;-78
2021/04/01 04:25:33;;;;;;;15.68;11.38;;;;;;;1.39;93.34;93415.39;1809843;79;21159;-78
2021/04/01 04:30:28;;;;;;;20.15;11.12;;;;;;;1.34;93.23;93411.58;1771413;81;21108;-78
2021/04/01 04:32:56;;;;;;;15.18;10.88;;;;;;;1.28;93.46;93407.59;1771442;81;21363;-78
2021/04/01 04:35:25;;;;;;;17.42;11.08;;;;;;;1.24;93.85;93408.01;1770986;81;21179;-78
2021/04/01 04:37:53;;;;;;;17.15;10.45;;;;;;;1.27;94.42;93406.56;1771489;81;21188;-78
2021/04/01 04:40:20;;;;;;;18.60;11.53;;;;;;;1.30;94.87;93412.03;1743424;81;21120;-78
2021/04/01 04:42:47;;;;;;;15.32;11.33;;;;;;;1.38;94.95;93405.77;1760056;81;21116;-78
2021/04/01 04:45:14;;;;;;;17.42;11.48;;;;;;;1.43;94.76;93408.80;1771468;81;21333;-78
2021/04/01 04:47:42;;;;;;;14.93;10.15;;;;;;;1.46;94.35;93405.42;1771423;81;21524;-78
2021/04/01 04:50:10;;;;;;;15.23;9.78;;;;;;;1.47;94.30;93397.62;1771533;81;21141;-78
2021/04/01 04:52:39;;;;;;;15.25;9.90;;;;;;;1.50;94.47;93403.62;1771454;81;21235;-77
2021/04/01 04:55:09;;;;;;;13.72;10.25;;;;;;;1.52;94.48;93395.27;1771543;81;21544;-78
2021/04/01 04:57:40;;;;;;;13.38;9.10;;;;;;;1.54;94.51;93400.48;1754382;81;21855;-78
2021/04/01 05:05:23;;;;;;;12.07;8.50;;;;;;;1.63;94.66;93401.72;1771468;81;21041;-80
2021/04/01 05:07:49;;;;;;;12.82;8.83;;;;;;;1.66;94.59;93400.48;1810013;78;21047;-78
2021/04/01 05:10:17;;;;;;;13.58;10.88;;;;;;;1.64;94.57;93397.34;1779843;79;21194;-79
2021/04/01 05:12:58;;;;;;;16.17;10.38;;;;;;;1.70;95.04;93395.22;1771351;81;21081;-79
2021/04/01 05:15:14;;;;;;;11.70;8.68;;;;;;;1.77;95.09;93394.63;1769157;81;21061;-79
2021/04/01 05:17:42;;;;;;;13.32;9.75;;;;;;;1.80;94.71;93389.92;1771409;81;21068;-78
2021/04/01 05:20:12;;;;;;;14.25;9.43;;;;;;;1.79;94.64;93389.16;1771457;81;21108;-79
2021/04/01 05:25:12;;;;;;;11.60;8.10;;;;;;;1.83;94.59;93387.34;1771371;81;21128;-79
2021/04/01 05:27:46;;;;;;;11.60;9.00;;;;;;;1.88;94.51;93395.70;1771451;81;21124;-78
2021/04/01 05:30:11;;;;;;;9.23;7.72;;;;;;;1.86;94.15;93393.37;1770977;81;21499;-78
2021/04/01 05:32:42;;;;;;;9.95;8.28;;;;;;;1.80;94.27;93385.91;1771424;81;21113;-79
2021/04/01 05:35:12;;;;;;;11.28;8.88;;;;;;;1.78;94.48;93388.16;1771447;81;21725;-79
2021/04/01 05:37:39;;;;;;;11.43;8.85;;;;;;;1.75;94.59;93391.52;1771318;81;21160;-79
2021/04/01 05:40:09;;;;;;;11.45;9.35;;;;;;;1.72;94.71;93377.45;1771419;81;21144;-79
2021/04/01 05:42:41;;;;;;;11.10;7.90;;;;;;;1.75;95.08;93379.45;1757883;81;21152;-79
2021/04/01 05:47:53;;;;;;;10.72;7.75;;;;;;;1.89;95.26;93381.98;1771474;81;21302;-79
2021/04/01 05:50:33;;;;;;;12.53;8.50;;;;;;;1.93;95.28;93377.48;1770158;81;21163;-78
2021/04/01 06:01:23;;;;;;;32.00;20.60;;;;;;;2.21;95.19;93374.00;1771290;81;22124;-79
2021/04/01 06:04:19;;;;;;;13.22;9.48;;;;;;;2.28;95.30;93365.37;1769733;81;21172;-79
2021/04/01 06:06:45;;;;;;;12.20;8.95;;;;;;;2.34;94.92;93370.14;1769982;81;21163;-78
2021/04/01 06:09:25;;;;;;;10.85;7.58;;;;;;;2.37;94.71;93366.78;1769875;81;21175;-79
2021/04/01 06:11:54;;;;;;;10.43;7.87;;;;;;;2.40;95.16;93363.95;1771045;81;21496;-78
2021/04/01 06:14:37;;;;;;;7.58;6.15;;;;;;;2.44;95.33;93360.80;1771317;81;21205;-78
2021/04/01 06:17:10;;;;;;;9.20;7.42;;;;;;;2.50;95.44;93362.11;1767762;81;21080;-78
2021/04/01 06:19:39;;;;;;;8.20;6.65;;;;;;;2.56;95.41;93358.62;1771347;81;21128;-79
2021/04/01 06:22:08;;;;;;;6.90;6.08;;;;;;;2.64;95.41;93362.47;1771076;81;21149;-79
2021/04/01 06:24:38;;;;;;;8.48;6.58;;;;;;;2.70;95.14;93358.95;1771255;81;21472;-79
2021/04/01 06:27:14;;;;;;;7.03;5.62;;;;;;;2.73;95.01;93357.48;1770751;81;21376;-79
2021/04/01 06:32:42;;;;;;;11.75;7.65;;;;;;;2.80;95.00;93352.28;1783099;79;21597;-79
2021/04/01 06:35:24;;;;;;;10.70;6.58;;;;;;;2.85;95.02;93360.07;1785850;79;21171;-78
2021/04/01 06:40:45;;;;;;;10.80;7.22;;;;;;;2.98;94.89;93356.17;1769991;81;21630;-79
2021/04/01 06:43:48;;;;;;;8.28;6.10;;;;;;;3.04;94.58;93358.02;1769942;81;21786;-78
2021/04/01 06:46:17;;;;;;;10.15;7.05;;;;;;;3.06;94.60;93358.46;1753505;81;21066;-77
2021/04/01 06:51:18;;;;;;;9.33;6.25;;;;;;;3.12;94.47;93352.48;1767664;81;21156;-77
2021/04/01 06:54:06;;;;;;;11.08;8.38;;;;;;;3.16;94.41;93349.88;1739291;82;21530;-78
2021/04/01 06:56:51;;;;;;;8.85;6.22;;;;;;;3.21;94.60;93353.63;1735477;82;21085;-78
2021/04/01 06:59:39;;;;;;;10.43;7.83;;;;;;;3.34;94.30;93352.37;1801827;78;21194;-79
2021/04/01 07:02:12;;;;;;;11.00;6.72;;;;;;;3.42;94.15;93345.23;1775001;79;21117;-77
2021/04/01 07:04:34;;;;;;;9.23;7.20;;;;;;;3.51;94.07;93348.52;1767810;81;21168;-78
2021/04/01 07:07:07;;;;;;;9.95;6.95;;;;;;;3.64;94.29;93342.44;1771219;81;21519;-78
2021/04/01 07:12:19;;;;;;;8.83;6.62;;;;;;;3.96;93.06;93337.72;1740467;80;21066;-76
2021/04/01 07:14:49;;;;;;;7.70;5.72;;;;;;;4.14;92.48;93333.45;1770955;81;21172;-76
2021/04/01 07:17:29;;;;;;;8.35;6.30;;;;;;;4.32;91.67;93322.21;1742621;81;21160;-77
2021/04/01 07:20:23;;;;;;;8.55;6.65;;;;;;;4.47;90.95;93330.75;1761728;81;22156;-77
2021/04/01 07:47:42;;;;;;;12.13;8.68;;;;;;;5.03;87.25;93301.06;1820109;78;21653;-77
2021/04/01 07:50:18;;;;;;;12.35;8.30;;;;;;;5.10;86.96;93284.42;1784484;78;21191;-76
2021/04/01 07:52:57;;;;;;;11.53;7.55;;;;;;;5.17;87.25;93284.33;1771262;81;21061;-75
2021/04/01 07:55:32;;;;;;;9.08;8.00;;;;;;;5.35;86.42;93285.34;1757587;81;21108;-75
2021/04/01 07:58:13;;;;;;;12.00;7.25;;;;;;;5.58;86.51;93281.21;1745165;81;21053;-78
2021/04/01 08:00:44;;;;;;;10.98;8.10;;;;;;;5.78;86.45;93274.51;1769954;81;21378;-77
2021/04/01 08:05:53;;;;;;;12.68;8.98;;;;;;;6.01;84.11;93263.61;1809277;79;21174;-76
2021/04/01 08:08:20;;;;;;;12.37;8.43;;;;;;;6.08;84.03;93254.81;1779370;79;21152;-76
2021/04/01 08:10:49;;;;;;;13.45;9.45;;;;;;;6.16;83.97;93252.39;1771291;81;21096;-76
2021/04/01 08:13:22;;;;;;;11.70;9.20;;;;;;;6.26;83.50;93243.62;1771215;80;21423;-75
2021/04/01 08:15:55;;;;;;;13.03;9.73;;;;;;;6.42;83.79;93236.62;1776708;79;21249;-77
2021/04/01 08:18:29;;;;;;;12.85;9.63;;;;;;;6.70;82.95;93236.67;1809894;79;21115;-76
2021/04/01 08:21:04;;;;;;;13.48;9.58;;;;;;;7.00;81.97;93237.27;1741021;81;21073;-76
2021/04/01 08:23:34;;;;;;;13.18;9.60;;;;;;;7.27;80.97;93239.16;1709662;81;21664;-77
2021/04/01 08:26:22;;;;;;;10.98;8.93;;;;;;;7.58;79.62;93230.81;1697348;82;21832;-78
2021/04/01 08:32:13;;;;;;;12.60;9.15;;;;;;;8.14;77.57;93222.09;1750626;80;21154;-76
2021/04/01 08:36:28;;;;;;;14.98;9.63;;;;;;;8.62;76.70;93223.73;1738293;82;21148;-75
2021/04/01 08:38:57;;;;;;;10.55;8.50;;;;;;;8.86;74.58;93217.52;1739975;81;21483;-77
2021/04/01 08:41:39;;;;;;;11.20;8.75;;;;;;;9.03;74.24;93224.09;1712230;82;21212;-76
2021/04/01 08:44:48;;;;;;;11.25;8.33;;;;;;;9.22;73.46;93211.47;1704988;82;21132;-76
2021/04/01 08:47:37;;;;;;;9.20;7.85;;;;;;;9.61;72.69;93209.22;1700215;82;21168;-76
2021/04/01 08:50:26;;;;;;;10.70;9.20;;;;;;;10.11;72.62;93204.13;1673868;83;21195;-75
2021/04/01 08:53:08;;;;;;;11.75;8.78;;;;;;;10.57;69.22;93207.16;1740414;80;21807;-78
2021/04/01 08:56:18;;;;;;;11.70;8.48;;;;;;;10.81;68.73;93195.91;1749244;80;21204;-77
2021/04/01 08:58:44;;;;;;;13.32;9.28;;;;;;;10.92;67.55;93191.92;1739375;79;21600;-76
2021/04/01 09:01:15;;;;;;;10.88;8.20;;;;;;;11.00;67.44;93187.78;1806616;79;21056;-77
2021/04/01 09:03:43;;;;;;;13.50;9.10;;;;;;;10.96;66.11;93184.33;1792925;79;21115;-76
2021/04/01 09:06:11;;;;;;;10.05;8.03;;;;;;;11.00;67.16;93177.67;1793714;79;21352;-76
2021/04/01 09:08:44;;;;;;;12.23;8.38;;;;;;;11.30;66.20;93181.06;1800180;79;21597;-77
2021/04/01 09:11:12;;;;;;;9.95;7.47;;;;;;;11.52;65.55;93183.56;1764466;79;21551;-77
2021/04/01 09:13:46;;;;;;;9.45;7.70;;;;;;;11.78;65.47;93170.60;1758614;80;21142;-77
2021/04/01 09:16:21;;;;;;;11.70;7.70;;;;;;;12.08;64.64;93169.85;1786430;79;21182;-77
2021/04/01 09:18:46;;;;;;;11.43;8.00;;;;;;;12.36;62.44;93165.17;1781793;79;21201;-76
2021/04/01 09:21:14;;;;;;;11.40;8.30;;;;;;;12.59;62.60;93169.88;1776337;79;21188;-77
2021/04/01 09:23:48;;;;;;;9.28;7.60;;;;;;;12.63;61.02;93158.32;1805593;79;21498;-77
2021/04/01 09:26:21;;;;;;;9.45;7.15;;;;;;;12.66;60.71;93152.64;1815450;78;21119;-76
2021/04/01 09:28:50;;;;;;;9.08;6.62;;;;;;;12.89;60.79;93149.31;1814483;78;21176;-76
2021/04/01 09:31:17;;;;;;;11.83;7.85;;;;;;;13.22;59.35;93144.66;1808636;78;21290;-76
2021/04/01 09:33:47;;;;;;;8.03;6.80;;;;;;;13.45;57.75;93137.81;1774383;80;21609;-76
2021/04/01 09:36:20;;;;;;;12.50;7.85;;;;;;;13.62;57.44;93133.20;1790389;78;21059;-77
2021/04/01 09:38:53;;;;;;;9.75;7.75;;;;;;;13.82;56.91;93130.45;1777613;78;21160;-77
2021/04/01 09:41:34;;;;;;;7.60;6.62;;;;;;;13.90;54.05;93129.09;1770922;81;21128;-77
2021/04/01 09:44:06;;;;;;;7.53;6.28;;;;;;;13.87;53.13;93130.54;1771013;81;21180;-77
2021/04/01 09:46:52;;;;;;;11.18;6.53;;;;;;;13.88;54.45;93116.47;1770913;80;21156;-76
2021/04/01 09:49:19;;;;;;;8.00;6.37;;;;;;;13.95;53.71;93121.76;1751957;80;21203;-77
2021/04/01 09:51:56;;;;;;;8.63;6.35;;;;;;;14.04;53.17;93115.73;1775061;80;21602;-76
2021/04/01 09:54:27;;;;;;;7.35;6.22;;;;;;;14.13;53.80;93113.77;1770944;81;21242;-78
2021/04/01 09:56:58;;;;;;;8.98;6.10;;;;;;;14.18;51.79;93116.79;1770449;80;22166;-77
2021/04/01 09:59:49;;;;;;;9.38;6.10;;;;;;;14.19;53.28;93113.45;1769936;81;21179;-78
2021/04/01 10:02:30;;;;;;;6.10;5.10;;;;;;;14.25;51.67;93098.06;1770869;80;21626;-79
2021/04/01 10:05:03;;;;;;;7.87;5.45;;;;;;;14.32;51.61;93095.16;1770163;81;21566;-76
2021/04/01 10:07:32;;;;;;;9.45;6.45;;;;;;;14.37;51.87;93091.94;1770861;81;21251;-79
2021/04/01 10:10:02;;;;;;;8.83;7.15;;;;;;;14.50;51.88;93088.70;1771077;81;21969;-77
2021/04/01 10:12:36;;;;;;;8.18;6.05;;;;;;;14.62;50.82;93091.34;1770801;81;21207;-77
2021/04/01 10:15:12;;;;;;;6.75;5.85;;;;;;;14.67;50.81;93081.27;1771169;81;21089;-76
2021/04/01 10:17:39;;;;;;;6.45;5.33;;;;;;;14.75;51.41;93079.13;1769840;81;21200;-78
2021/04/01 10:20:29;;;;;;;8.80;5.72;;;;;;;14.78;51.28;93076.30;1770815;81;21167;-77
2021/04/01 10:23:06;;;;;;;7.47;5.75;;;;;;;14.77;51.49;93073.37;1756259;81;21198;-77
2021/04/01 10:25:40;;;;;;;7.50;5.55;;;;;;;14.73;51.36;93076.80;1760915;81;21295;-77
2021/04/01 10:28:13;;;;;;;8.68;6.35;;;;;;;14.67;50.37;93062.70;1761059;81;21068;-77
2021/04/01 10:30:39;;;;;;;8.25;5.95;;;;;;;14.65;50.54;93060.40;1760669;81;21066;-77
2021/04/01 10:33:20;;;;;;;8.33;6.15;;;;;;;14.69;49.71;93058.94;1761116;81;21137;-77
2021/04/01 10:35:50;;;;;;;8.90;6.35;;;;;;;14.71;50.88;93046.98;1760904;81;21141;-77
2021/04/01 10:38:19;;;;;;;8.18;5.72;;;;;;;14.75;52.08;93040.21;1761021;81;21120;-77
2021/04/01 10:40:49;;;;;;;7.83;5.85;;;;;;;14.86;52.12;93039.94;1738405;82;32574;-79
2021/04/01 10:43:21;;;;;;;8.10;5.72;;;;;;;14.99;50.95;93034.50;1767441;80;21073;-78
2021/04/01 10:45:49;;;;;;;8.15;5.47;;;;;;;15.04;50.37;93036.13;1772833;80;21270;-76
2021/04/01 10:48:33;;;;;;;5.72;5.10;;;;;;;15.06;50.08;93030.20;1774969;80;21647;-77
2021/04/01 10:51:07;;;;;;;7.58;6.00;;;;;;;15.15;49.95;93023.48;1785936;79;21192;-76
2021/04/01 10:53:33;;;;;;;9.43;6.10;;;;;;;15.24;50.84;93012.69;1814473;78;21161;-76
2021/04/01 10:56:07;;;;;;;6.97;5.70;;;;;;;15.37;49.08;93016.81;1807371;79;21083;-77
2021/04/01 10:58:35;;;;;;;7.53;5.10;;;;;;;15.39;49.50;93008.94;1806889;79;21170;-77
2021/04/01 11:01:05;;;;;;;7.55;5.45;;;;;;;15.46;48.21;93010.72;1806638;79;21414;-77
2021/04/01 11:03:46;;;;;;;7.20;5.17;;;;;;;15.50;47.72;93002.55;1806375;79;21685;-78
2021/04/01 11:06:14;;;;;;;7.78;5.10;;;;;;;15.50;48.08;93005.90;1795496;79;21219;-76
2021/04/01 11:08:44;;;;;;;7.22;4.78;;;;;;;15.45;48.89;93003.68;1773486;80;21131;-78
2021/04/01 11:11:12;;;;;;;5.75;4.80;;;;;;;15.39;47.88;92997.98;1775856;80;21132;-77
2021/04/01 11:13:45;;;;;;;6.55;5.62;;;;;;;15.39;48.99;92991.14;1810466;79;21201;-78
2021/04/01 11:16:18;;;;;;;8.83;6.37;;;;;;;15.41;49.11;92989.32;1809523;79;21076;-77
2021/04/01 11:18:48;;;;;;;9.20;4.60;;;;;;;15.48;49.20;92987.14;1790626;79;21072;-78
2021/04/01 11:21:15;;;;;;;7.10;4.92;;;;;;;15.61;48.48;92981.69;1787718;79;21482;-77
2021/04/01 11:23:44;;;;;;;6.70;5.30;;;;;;;15.73;47.14;92976.84;1802376;79;21099;-76
2021/04/01 11:26:11;;;;;;;7.50;5.05;;;;;;;15.88;47.89;92977.17;1756963;81;21816;-78
2021/04/01 11:28:50;;;;;;;6.80;4.70;;;;;;;15.95;46.61;92975.58;1770649;80;21574;-77
2021/04/01 11:31:31;;;;;;;7.28;4.83;;;;;;;15.95;48.37;92974.20;1804226;79;21173;-76
2021/04/01 11:34:00;;;;;;;8.35;5.22;;;;;;;16.00;46.13;92971.51;1797146;78;21060;-76
2021/04/01 11:36:36;;;;;;;8.18;5.90;;;;;;;16.05;46.71;92965.46;1774305;79;21580;-77
2021/04/01 11:39:03;;;;;;;7.55;5.67;;;;;;;16.04;46.82;92962.56;1761150;80;21430;-78
2021/04/01 11:41:32;;;;;;;7.72;5.00;;;;;;;16.04;47.21;92966.68;1758733;81;21160;-74
2021/04/01 11:43:59;;;;;;;7.17;5.20;;;;;;;16.05;47.30;92961.34;1761785;80;21599;-76
2021/04/01 11:46:30;;;;;;;7.25;5.42;;;;;;;16.13;45.89;92959.14;1761619;81;21065;-74
2021/04/01 11:48:59;;;;;;;7.62;5.15;;;;;;;16.14;46.17;92955.98;1761454;80;21081;-76
2021/04/01 11:51:31;;;;;;;5.97;5.00;;;;;;;16.15;46.59;92954.00;1761519;81;21242;-77
2021/04/01 11:54:02;;;;;;;7.20;5.62;;;;;;;16.20;46.95;92948.70;1761092;81;21528;-76
2021/04/01 11:59:29;;;;;;;8.18;5.20;;;;;;;16.32;47.36;92943.63;1767941;80;21609;-78
2021/04/01 12:02:00;;;;;;;6.00;5.35;;;;;;;16.34;47.32;92945.34;1741287;81;21179;-79
2021/04/01 12:04:31;;;;;;;9.70;5.45;;;;;;;16.31;45.13;92940.73;1716942;82;23065;-81
2021/04/01 12:06:58;;;;;;;6.97;5.47;;;;;;;16.32;45.94;92932.05;1736514;81;21214;-77
2021/04/01 12:09:26;;;;;;;10.78;5.40;;;;;;;16.39;46.30;92927.70;1738225;81;21108;-77
2021/04/01 12:11:55;;;;;;;7.55;5.83;;;;;;;16.39;46.28;92930.44;1774123;80;21045;-79
2021/04/01 12:14:34;;;;;;;6.08;5.35;;;;;;;16.44;45.72;92927.77;1781516;79;21096;-80
2021/04/01 12:17:06;;;;;;;8.30;5.87;;;;;;;16.45;45.36;92928.68;1775411;79;21190;-80
2021/04/01 12:19:34;;;;;;;9.23;6.12;;;;;;;16.38;44.42;92926.17;1770508;81;21187;-79
2021/04/01 12:22:09;;;;;;;9.00;6.22;;;;;;;16.29;45.87;92917.11;1754999;81;21630;-78
2021/04/01 12:24:36;;;;;;;9.03;6.62;;;;;;;16.26;45.74;92916.02;1750109;80;21207;-77
2021/04/01 12:27:05;;;;;;;7.75;6.20;;;;;;;16.27;45.72;92909.30;1778264;80;21183;-78
2021/04/01 12:29:45;;;;;;;7.80;5.95;;;;;;;16.25;46.09;92909.77;1779386;80;21358;-77
2021/04/01 12:32:12;;;;;;;6.97;5.75;;;;;;;16.27;47.25;92906.56;1806257;79;21187;-78
2021/04/01 12:34:42;;;;;;;11.78;6.97;;;;;;;16.32;47.36;92908.73;1782501;78;21211;-79
2021/04/01 12:37:16;;;;;;;6.90;6.00;;;;;;;16.36;46.77;92912.15;1789825;79;21166;-78
2021/04/01 12:39:44;;;;;;;7.08;5.70;;;;;;;16.38;46.50;92908.95;1798501;78;21108;-77
2021/04/01 12:42:12;;;;;;;9.85;6.90;;;;;;;16.45;46.92;92901.23;1771135;80;22141;-76
2021/04/01 12:44:43;;;;;;;7.80;5.72;;;;;;;16.54;47.51;92902.52;1774204;80;21228;-77
2021/04/01 12:47:23;;;;;;;7.17;6.45;;;;;;;16.63;46.76;92890.25;1787753;80;21129;-76
2021/04/01 12:49:56;;;;;;;8.05;6.87;;;;;;;16.69;45.30;92887.08;1775401;80;21117;-78
2021/04/01 12:52:23;;;;;;;7.17;6.17;;;;;;;16.69;46.53;92890.59;1752744;80;21185;-77
2021/04/01 12:54:51;;;;;;;8.03;6.65;;;;;;;16.64;46.88;92882.94;1750938;81;21367;-77
2021/04/01 12:57:21;;;;;;;7.87;6.33;;;;;;;16.64;46.37;92879.42;1750901;80;21128;-77
2021/04/01 12:59:53;;;;;;;8.45;6.65;;;;;;;16.61;46.92;92880.31;1746493;80;21186;-76
2021/04/01 13:02:24;;;;;;;7.37;6.55;;;;;;;16.65;47.19;92878.97;1732584;79;21130;-77
2021/04/01 13:04:58;;;;;;;8.00;6.47;;;;;;;16.73;46.17;92872.62;1784584;79;21159;-76
2021/04/01 13:08:03;;;;;;;;;;;;;;;;;;;;;
2021/04/01 13:12:50;;;;;;;34.80;24.32;;;;;;;16.90;47.65;92862.24;1783082;78;21170;-75